Time;durP1;ratioP1;P1;durP2;ratioP2;P2;SDS_P1;SDS_P2;PMS_P1;PMS_P2;Temp;Humidity;BMP_temperature;BMP_pressure;BME280_temperature;BME280_humidity;BME280_pressure;Samples;Min_cycle;Max_cycle;Signal;HPM_P1;HPM_P2
2022/03/23 00:00:51;;;;;;;61.92;34.13;;;6.20;99.90;;;;;;4880835;29;20048;-89
2022/03/23 00:03:17;;;;;;;55.40;33.72;;;6.20;99.90;;;;;;4880934;29;20055;-89
2022/03/23 00:05:43;;;;;;;61.25;33.90;;;6.20;99.90;;;;;;4881096;29;20083;-89
2022/03/23 00:08:09;;;;;;;59.25;35.22;;;6.10;99.90;;;;;;4880938;29;20057;-89
2022/03/23 00:10:36;;;;;;;56.45;34.58;;;6.10;99.90;;;;;;4881171;29;20081;-89
2022/03/23 00:13:03;;;;;;;61.17;34.13;;;6.10;99.90;;;;;;4880680;29;20067;-89
2022/03/23 00:15:30;;;;;;;59.75;34.42;;;6.10;99.90;;;;;;4897096;29;20060;-90
2022/03/23 00:17:56;;;;;;;59.47;34.72;;;6.00;99.90;;;;;;4865025;29;20068;-89
2022/03/23 00:20:23;;;;;;;58.35;33.83;;;6.00;99.90;;;;;;4897844;29;20395;-89
2022/03/23 00:22:49;;;;;;;54.17;35.17;;;5.90;99.90;;;;;;4881184;29;20112;-89
2022/03/23 00:25:15;;;;;;;62.00;34.85;;;5.90;99.90;;;;;;4880857;29;20056;-89
2022/03/23 00:27:40;;;;;;;58.13;33.42;;;5.90;99.90;;;;;;4880872;29;20128;-89
2022/03/23 00:30:07;;;;;;;57.33;33.75;;;5.90;99.90;;;;;;4865506;29;20075;-89
2022/03/23 00:32:33;;;;;;;58.03;34.00;;;5.80;99.90;;;;;;4880804;29;20089;-89
2022/03/23 00:35:00;;;;;;;60.80;35.03;;;5.80;99.90;;;;;;4865263;29;20448;-89
2022/03/23 00:37:25;;;;;;;57.13;34.70;;;5.80;99.90;;;;;;4880671;29;20163;-89
2022/03/23 00:39:51;;;;;;;57.80;34.47;;;5.70;99.90;;;;;;4865161;29;20072;-89
2022/03/23 00:42:17;;;;;;;57.70;33.97;;;5.70;99.90;;;;;;4880869;29;20057;-89
2022/03/23 00:44:43;;;;;;;58.95;35.05;;;5.70;99.90;;;;;;4880706;29;20127;-89
2022/03/23 00:47:09;;;;;;;59.33;34.30;;;5.70;99.90;;;;;;4864700;29;20490;-89
2022/03/23 00:49:36;;;;;;;56.15;33.50;;;5.60;99.90;;;;;;4880651;29;20049;-90
2022/03/23 00:52:02;;;;;;;61.65;35.22;;;5.60;99.90;;;;;;4880882;29;20139;-89
2022/03/23 00:54:28;;;;;;;55.70;33.10;;;5.60;99.90;;;;;;4881012;29;20068;-89
2022/03/23 00:56:53;;;;;;;57.78;33.78;;;5.60;99.90;;;;;;4880782;29;20425;-89
2022/03/23 00:59:20;;;;;;;61.55;33.47;;;5.50;99.90;;;;;;4865311;29;20391;-88
2022/03/23 01:01:46;;;;;;;56.65;34.88;;;5.50;99.90;;;;;;4880575;29;20444;-89
2022/03/23 01:04:12;;;;;;;60.10;34.53;;;5.40;99.90;;;;;;4880615;29;20104;-89
2022/03/23 01:06:38;;;;;;;56.97;34.78;;;5.50;99.90;;;;;;4865109;29;20065;-89
2022/03/23 01:09:05;;;;;;;62.05;35.53;;;5.40;99.90;;;;;;4865170;29;20060;-89
2022/03/23 01:11:31;;;;;;;62.58;36.17;;;5.40;99.90;;;;;;4880727;29;20049;-89
2022/03/23 01:13:56;;;;;;;63.53;34.25;;;5.40;99.90;;;;;;4880335;29;20398;-89
2022/03/23 01:16:22;;;;;;;63.83;35.63;;;5.40;99.90;;;;;;4880272;29;20045;-89
2022/03/23 01:18:48;;;;;;;57.88;34.85;;;5.30;99.90;;;;;;4852852;29;20069;-89
2022/03/23 01:21:13;;;;;;;61.08;35.03;;;5.30;99.90;;;;;;4861814;29;20057;-89
2022/03/23 01:23:39;;;;;;;61.60;36.35;;;5.30;99.90;;;;;;4861538;29;20088;-89
2022/03/23 01:26:05;;;;;;;64.78;35.75;;;5.20;99.90;;;;;;4863666;29;20052;-89
2022/03/23 01:28:31;;;;;;;59.92;34.45;;;5.20;99.90;;;;;;4865223;29;20049;-88
2022/03/23 01:30:57;;;;;;;65.65;36.08;;;5.10;99.90;;;;;;4849599;29;20080;-89
2022/03/23 01:33:22;;;;;;;64.22;35.20;;;5.10;99.90;;;;;;4849634;29;20060;-89
2022/03/23 01:35:48;;;;;;;61.03;34.97;;;5.10;99.90;;;;;;4880133;29;20049;-88
2022/03/23 01:38:14;;;;;;;59.55;34.75;;;5.00;99.90;;;;;;4864930;29;20045;-89
2022/03/23 01:40:40;;;;;;;64.18;36.22;;;5.00;99.90;;;;;;4865159;29;20053;-89
2022/03/23 01:43:06;;;;;;;65.90;34.95;;;4.90;99.90;;;;;;4864921;29;20461;-88
2022/03/23 01:45:31;;;;;;;54.67;33.67;;;4.90;99.90;;;;;;4864833;29;20060;-89
2022/03/23 01:47:57;;;;;;;61.40;34.40;;;4.90;99.90;;;;;;4848737;29;20072;-89
2022/03/23 01:50:23;;;;;;;65.32;35.15;;;5.00;99.90;;;;;;4881042;29;20049;-90
2022/03/23 01:52:49;;;;;;;64.35;35.20;;;4.80;99.90;;;;;;4849555;29;20060;-89
2022/03/23 01:55:14;;;;;;;62.78;34.55;;;4.80;99.90;;;;;;4848725;29;20061;-89
2022/03/23 01:57:45;;;;;;;58.35;34.45;;;4.80;99.90;;;;;;4849024;29;20056;-89
2022/03/23 02:00:12;;;;;;;59.08;34.53;;;4.70;99.90;;;;;;4881265;29;20105;-89
2022/03/23 02:02:40;;;;;;;62.15;34.25;;;4.70;99.90;;;;;;4864323;29;20084;-89
2022/03/23 02:05:06;;;;;;;65.90;36.53;;;4.70;99.90;;;;;;4864306;29;20061;-89
2022/03/23 02:07:32;;;;;;;57.40;35.05;;;4.70;99.90;;;;;;4864345;29;20045;-89
2022/03/23 02:09:59;;;;;;;63.30;35.17;;;4.70;99.90;;;;;;4849200;29;20052;-89
2022/03/23 02:12:30;;;;;;;62.42;35.92;;;4.70;99.90;;;;;;4880993;29;20136;-89
2022/03/23 02:15:00;;;;;;;58.85;34.05;;;4.60;99.90;;;;;;4864411;29;20041;-89
2022/03/23 02:17:26;;;;;;;60.35;33.70;;;4.50;99.90;;;;;;4865567;29;20105;-89
2022/03/23 02:19:52;;;;;;;61.47;34.63;;;4.50;99.90;;;;;;4882566;29;20095;-90
2022/03/23 02:22:18;;;;;;;59.40;34.33;;;4.50;99.90;;;;;;4899533;29;20088;-89
2022/03/23 02:24:46;;;;;;;61.03;33.55;;;4.50;99.90;;;;;;4882610;29;20056;-89
2022/03/23 02:27:13;;;;;;;60.22;34.72;;;4.40;99.90;;;;;;4882909;29;20403;-89
2022/03/23 02:29:39;;;;;;;60.78;33.65;;;4.40;99.90;;;;;;4882593;29;20044;-89
2022/03/23 02:32:05;;;;;;;63.53;34.50;;;4.40;99.90;;;;;;4882623;29;20056;-89
2022/03/23 02:34:31;;;;;;;58.95;33.78;;;4.30;99.90;;;;;;4866564;29;20053;-89
2022/03/23 02:36:58;;;;;;;53.97;32.70;;;4.40;99.90;;;;;;4866280;29;20084;-88
2022/03/23 02:39:25;;;;;;;65.00;35.50;;;4.30;99.90;;;;;;4882585;29;20044;-89
2022/03/23 02:41:56;;;;;;;58.85;32.85;;;4.30;99.90;;;;;;4899047;29;20379;-89
2022/03/23 02:44:25;;;;;;;61.22;34.42;;;4.40;99.90;;;;;;4882545;29;20523;-89
2022/03/23 02:46:52;;;;;;;63.47;34.00;;;4.20;99.90;;;;;;4882329;29;20049;-88
2022/03/23 02:49:18;;;;;;;55.90;32.03;;;4.20;99.90;;;;;;4866515;29;20067;-89
2022/03/23 02:51:44;;;;;;;60.40;33.90;;;4.20;99.90;;;;;;4866421;29;20064;-89
2022/03/23 03:02:48;;;;;;;59.22;31.73;;;4.10;99.90;;;;;;4881851;29;20529;-88
2022/03/23 03:05:14;;;;;;;59.25;31.65;;;4.10;99.90;;;;;;4866710;29;20052;-88
2022/03/23 03:10:25;;;;;;;62.33;32.80;;;4.00;99.90;;;;;;4898280;29;20109;-89
2022/03/23 03:12:52;;;;;;;54.88;32.53;;;3.90;99.90;;;;;;4866224;29;20108;-88
2022/03/23 03:15:19;;;;;;;58.00;30.95;;;3.90;99.90;;;;;;4881940;29;20430;-89
2022/03/23 03:17:48;;;;;;;55.20;32.45;;;4.10;99.90;;;;;;4865360;29;20561;-88
2022/03/23 03:20:15;;;;;;;53.20;30.63;;;3.90;99.90;;;;;;4898184;29;20473;-89
2022/03/23 03:22:41;;;;;;;60.00;31.33;;;3.90;99.90;;;;;;4865755;29;20407;-88
2022/03/23 03:25:10;;;;;;;54.03;30.42;;;3.90;99.90;;;;;;4881720;29;20048;-89
2022/03/23 03:27:37;;;;;;;57.72;31.05;;;3.80;99.90;;;;;;4865909;29;20064;-88
2022/03/23 03:30:05;;;;;;;56.20;32.88;;;3.80;99.90;;;;;;4865942;29;20510;-88
2022/03/23 03:32:31;;;;;;;55.58;31.83;;;3.80;99.90;;;;;;4865900;29;20380;-89
2022/03/23 03:34:57;;;;;;;49.83;30.08;;;3.80;99.90;;;;;;4881444;29;20052;-89
2022/03/23 03:37:23;;;;;;;61.47;31.67;;;3.80;99.90;;;;;;4881120;29;20047;-88
2022/03/23 03:39:49;;;;;;;58.13;32.13;;;3.70;99.90;;;;;;4881671;29;20044;-89
2022/03/23 03:42:15;;;;;;;54.78;31.75;;;3.70;99.90;;;;;;4881603;29;20487;-88
2022/03/23 03:44:40;;;;;;;58.60;31.95;;;3.70;99.90;;;;;;4881233;29;20064;-88
2022/03/23 03:47:06;;;;;;;60.45;31.67;;;3.70;99.90;;;;;;4881198;29;20051;-88
2022/03/23 03:49:32;;;;;;;61.58;31.65;;;3.70;99.90;;;;;;4880939;29;20055;-89
2022/03/23 03:51:58;;;;;;;58.67;30.88;;;3.70;99.90;;;;;;4880973;29;20052;-88
2022/03/23 03:54:24;;;;;;;60.47;32.28;;;3.90;99.90;;;;;;4881100;29;20472;-88
2022/03/23 03:56:50;;;;;;;61.30;33.67;;;3.70;99.90;;;;;;4881223;29;20511;-88
2022/03/23 03:59:15;;;;;;;62.65;33.63;;;3.70;99.90;;;;;;4865450;29;20140;-88
2022/03/23 04:01:41;;;;;;;53.92;31.80;;;3.70;99.90;;;;;;4880841;29;20101;-88
2022/03/23 04:04:07;;;;;;;60.33;31.80;;;3.70;99.90;;;;;;4865573;29;20442;-88
2022/03/23 04:06:33;;;;;;;63.83;34.25;;;3.60;99.90;;;;;;4880831;29;20135;-88
2022/03/23 04:08:59;;;;;;;66.13;34.40;;;3.60;99.90;;;;;;4897259;29;20049;-88
2022/03/23 04:11:25;;;;;;;63.40;33.53;;;3.50;99.90;;;;;;4881067;29;20392;-88
2022/03/23 04:13:51;;;;;;;64.55;34.92;;;3.50;99.90;;;;;;4865110;29;20064;-88
2022/03/23 04:16:16;;;;;;;70.63;35.83;;;3.50;99.90;;;;;;4865128;29;20487;-89
2022/03/23 04:18:42;;;;;;;65.75;35.83;;;3.50;99.90;;;;;;4897294;29;20148;-88
2022/03/23 04:21:08;;;;;;;62.38;34.42;;;3.50;99.90;;;;;;4880623;29;20115;-88
2022/03/23 04:23:34;;;;;;;66.57;35.42;;;3.60;99.90;;;;;;4897213;29;20044;-88
2022/03/23 04:26:00;;;;;;;66.97;35.03;;;3.40;99.90;;;;;;4880627;29;20131;-88
2022/03/23 04:28:26;;;;;;;65.05;34.47;;;3.50;99.90;;;;;;4880971;29;20087;-88
2022/03/23 04:30:51;;;;;;;66.55;35.00;;;3.50;99.90;;;;;;4865211;29;20513;-89
2022/03/23 04:33:17;;;;;;;73.72;36.63;;;3.80;99.90;;;;;;4880720;29;20061;-88
2022/03/23 04:35:43;;;;;;;64.35;35.60;;;3.50;99.90;;;;;;4880721;29;20060;-88
2022/03/23 04:38:09;;;;;;;65.80;34.83;;;3.50;99.90;;;;;;4864675;29;20092;-88
2022/03/23 04:40:34;;;;;;;68.68;36.05;;;3.40;99.90;;;;;;4864619;29;20071;-89
2022/03/23 04:43:00;;;;;;;69.20;35.70;;;3.40;99.90;;;;;;4880583;29;20049;-88
2022/03/23 04:45:26;;;;;;;69.45;35.38;;;3.40;99.90;;;;;;4880443;29;20088;-89
2022/03/23 04:47:52;;;;;;;68.43;36.80;;;3.40;99.90;;;;;;4864935;29;20148;-88
2022/03/23 04:50:18;;;;;;;61.30;34.08;;;3.30;99.90;;;;;;4880702;29;20108;-88
2022/03/23 04:52:45;;;;;;;70.97;36.00;;;3.30;99.90;;;;;;4880629;29;20112;-88
2022/03/23 04:55:13;;;;;;;70.03;36.15;;;3.40;99.90;;;;;;4865096;29;20053;-88
2022/03/23 04:57:39;;;;;;;68.95;36.53;;;3.30;99.90;;;;;;4864700;29;20059;-89
2022/03/23 05:00:10;;;;;;;73.72;35.97;;;3.20;99.90;;;;;;4881085;29;20056;-88
2022/03/23 05:02:38;;;;;;;76.35;36.65;;;3.20;99.90;;;;;;4900632;29;20057;-88
2022/03/23 05:05:05;;;;;;;75.97;38.80;;;3.20;99.90;;;;;;4883745;29;20509;-88
2022/03/23 05:07:31;;;;;;;76.15;38.70;;;3.20;99.90;;;;;;4868407;29;20057;-88
2022/03/23 05:09:56;;;;;;;74.03;37.08;;;3.20;99.90;;;;;;4883880;29;20068;-88
2022/03/23 05:12:22;;;;;;;71.30;36.95;;;3.10;99.90;;;;;;4868363;29;20053;-88
2022/03/23 05:14:47;;;;;;;67.88;36.90;;;3.10;99.90;;;;;;4884253;29;20048;-88
2022/03/23 05:17:13;;;;;;;76.55;37.72;;;3.10;99.90;;;;;;4883648;29;20045;-89
2022/03/23 05:19:39;;;;;;;80.93;37.65;;;3.00;99.90;;;;;;4882502;29;20057;-88
2022/03/23 05:22:05;;;;;;;73.75;35.88;;;3.10;99.90;;;;;;4867120;29;20068;-88
2022/03/23 05:24:31;;;;;;;73.35;36.00;;;3.00;99.90;;;;;;4866742;29;20056;-88
2022/03/23 05:26:56;;;;;;;69.32;37.15;;;3.10;99.90;;;;;;4882325;29;20052;-88
2022/03/23 05:29:22;;;;;;;72.00;36.83;;;3.10;99.90;;;;;;4899289;29;20452;-88
2022/03/23 05:31:48;;;;;;;69.45;35.45;;;3.00;99.90;;;;;;4882406;29;20505;-88
2022/03/23 05:34:13;;;;;;;69.57;36.97;;;3.00;99.90;;;;;;4867091;29;20053;-88
2022/03/23 05:36:39;;;;;;;66.43;35.38;;;3.10;99.90;;;;;;4866931;29;20053;-88
2022/03/23 05:39:05;;;;;;;68.32;35.08;;;3.00;99.90;;;;;;4882295;29;20136;-88
2022/03/23 05:41:31;;;;;;;72.68;35.90;;;3.10;99.90;;;;;;4866291;29;20060;-88
2022/03/23 05:43:57;;;;;;;67.05;35.45;;;3.00;99.90;;;;;;4882401;29;20063;-88
2022/03/23 05:46:22;;;;;;;73.28;36.55;;;3.00;99.90;;;;;;4898984;29;20052;-89
2022/03/23 05:48:48;;;;;;;68.90;36.25;;;3.00;99.90;;;;;;4882368;29;20096;-88
2022/03/23 05:51:15;;;;;;;69.15;36.20;;;3.00;99.90;;;;;;4866478;29;20065;-88
2022/03/23 05:53:41;;;;;;;72.43;36.65;;;3.00;99.90;;;;;;4882391;29;20044;-88
2022/03/23 05:56:07;;;;;;;66.78;36.88;;;3.10;99.90;;;;;;4881927;29;20075;-89
2022/03/23 05:58:34;;;;;;;69.95;36.08;;;3.10;99.90;;;;;;4865703;29;20079;-88
2022/03/23 06:01:00;;;;;;;67.10;35.58;;;3.10;99.90;;;;;;4881441;29;20104;-89
2022/03/23 06:03:26;;;;;;;68.35;35.45;;;3.20;99.90;;;;;;4881969;29;20510;-88
2022/03/23 06:05:52;;;;;;;69.70;35.30;;;3.20;99.90;;;;;;4898127;29;20040;-89
2022/03/23 06:08:17;;;;;;;64.95;35.17;;;3.20;99.90;;;;;;4881316;29;20096;-88
2022/03/23 06:10:43;;;;;;;69.18;34.63;;;3.30;99.90;;;;;;4881260;29;20048;-88
2022/03/23 06:13:09;;;;;;;72.18;36.42;;;3.40;99.90;;;;;;4880613;29;20399;-88
2022/03/23 06:15:35;;;;;;;68.50;36.67;;;3.40;99.90;;;;;;4881997;29;20136;-88
2022/03/23 06:18:01;;;;;;;70.18;35.83;;;3.40;99.90;;;;;;4844565;29;1090511;-88
2022/03/23 06:20:27;;;;;;;67.15;35.33;;;3.50;99.90;;;;;;4899390;29;20063;-88
2022/03/23 06:22:52;;;;;;;69.75;35.60;;;3.50;99.90;;;;;;4882801;29;20052;-88
2022/03/23 06:25:18;;;;;;;72.45;37.55;;;3.60;99.90;;;;;;4882834;29;20418;-89
2022/03/23 06:27:44;;;;;;;65.05;35.33;;;3.70;99.90;;;;;;4882534;29;20546;-87
2022/03/23 06:30:10;;;;;;;60.85;34.10;;;3.70;99.90;;;;;;4882744;29;20049;-88
2022/03/23 06:32:36;;;;;;;54.20;31.77;;;3.80;99.90;;;;;;4899141;29;20051;-88
2022/03/23 06:35:02;;;;;;;57.78;33.25;;;4.00;99.90;;;;;;4882479;29;20037;-88
2022/03/23 06:37:30;;;;;;;64.32;34.80;;;4.00;99.90;;;;;;4898717;29;20051;-88
2022/03/23 06:39:57;;;;;;;62.33;36.15;;;4.10;99.90;;;;;;4882594;29;20480;-88
2022/03/23 06:42:23;;;;;;;65.82;36.58;;;4.30;99.90;;;;;;4898803;29;20077;-88
2022/03/23 06:44:50;;;;;;;65.50;35.17;;;4.40;99.90;;;;;;4867396;29;20112;-88
2022/03/23 06:47:15;;;;;;;62.60;33.63;;;4.50;99.90;;;;;;4882142;29;20062;-88
2022/03/23 06:49:41;;;;;;;62.53;34.63;;;4.70;99.90;;;;;;4882357;29;20399;-88
2022/03/23 06:52:07;;;;;;;68.82;35.42;;;4.80;99.90;;;;;;4866562;29;20513;-88
2022/03/23 06:54:33;;;;;;;57.15;33.17;;;4.90;99.90;;;;;;4882155;29;20107;-89
2022/03/23 06:56:59;;;;;;;62.45;34.75;;;5.10;99.90;;;;;;4881778;29;20060;-88
2022/03/23 06:59:25;;;;;;;59.25;33.63;;;5.30;99.90;;;;;;4882278;29;20068;-88
2022/03/23 07:01:50;;;;;;;56.28;33.50;;;5.50;99.90;;;;;;4882506;29;20415;-87
2022/03/23 07:04:16;;;;;;;54.95;30.58;;;5.70;99.90;;;;;;4881634;29;20087;-88
2022/03/23 07:06:43;;;;;;;51.92;31.02;;;5.90;99.90;;;;;;4882075;29;20057;-88
2022/03/23 07:11:53;;;;;;;58.70;32.10;;;6.30;99.90;;;;;;4881379;29;20117;-88
2022/03/23 07:14:18;;;;;;;53.55;29.52;;;6.50;99.90;;;;;;4882018;29;20061;-88
2022/03/23 07:16:44;;;;;;;54.60;29.23;;;6.70;99.90;;;;;;4867409;29;20059;-88
2022/03/23 07:19:10;;;;;;;49.65;29.67;;;6.90;99.90;;;;;;4881384;29;20546;-87
2022/03/23 07:21:36;;;;;;;52.78;29.58;;;7.20;99.90;;;;;;4897008;29;20048;-88
2022/03/23 07:24:02;;;;;;;47.00;29.20;;;7.30;99.90;;;;;;4881287;29;20415;-88
2022/03/23 07:26:28;;;;;;;53.35;29.67;;;7.50;99.90;;;;;;4881576;29;20049;-89
2022/03/23 07:28:54;;;;;;;49.00;27.85;;;7.60;99.90;;;;;;4881529;29;20048;-89
2022/03/23 07:31:19;;;;;;;51.97;29.33;;;7.70;99.90;;;;;;4865829;29;20188;-90
2022/03/23 07:33:45;;;;;;;50.28;28.13;;;7.90;99.90;;;;;;4882637;29;20052;-90
2022/03/23 07:36:12;;;;;;;52.63;29.45;;;8.00;99.90;;;;;;4881643;29;20053;-90
2022/03/23 07:38:38;;;;;;;48.08;28.63;;;8.40;99.90;;;;;;4898080;29;20135;-89
2022/03/23 07:41:04;;;;;;;53.72;27.90;;;8.30;99.90;;;;;;4898311;29;20041;-89
2022/03/23 07:43:30;;;;;;;45.58;26.27;;;8.50;99.90;;;;;;4898132;29;20051;-89
2022/03/23 07:45:57;;;;;;;50.17;28.52;;;8.60;99.90;;;;;;4865594;29;20056;-90
2022/03/23 07:48:23;;;;;;;46.88;28.13;;;8.90;99.90;;;;;;4881200;29;20059;-89
2022/03/23 07:50:50;;;;;;;48.58;27.77;;;8.90;99.90;;;;;;4881406;29;20056;-89
2022/03/23 07:53:17;;;;;;;45.03;27.45;;;9.10;99.90;;;;;;4881914;29;20045;-89
2022/03/23 07:55:43;;;;;;;45.20;26.35;;;9.30;99.90;;;;;;4881227;29;20049;-90
2022/03/23 07:58:08;;;;;;;47.25;26.98;;;9.40;99.90;;;;;;4881122;29;20059;-89
2022/03/23 08:00:35;;;;;;;44.85;26.00;;;9.60;99.90;;;;;;4881196;29;20139;-89
2022/03/23 08:03:00;;;;;;;47.13;26.10;;;9.80;99.90;;;;;;4881287;29;20399;-89
2022/03/23 08:05:26;;;;;;;43.53;27.05;;;9.90;99.90;;;;;;4881221;29;20056;-88
2022/03/23 08:07:52;;;;;;;47.40;26.05;;;10.10;99.90;;;;;;4881141;29;20048;-90
2022/03/23 08:10:18;;;;;;;40.67;25.25;;;10.20;99.90;;;;;;4880574;29;20056;-90
2022/03/23 08:12:44;;;;;;;41.97;25.70;;;10.40;99.90;;;;;;4880718;29;20139;-89
2022/03/23 08:15:09;;;;;;;45.35;26.40;;;10.60;99.90;;;;;;4881076;29;20195;-90
2022/03/23 08:17:38;;;;;;;45.55;26.40;;;10.90;99.90;;;;;;4897375;29;20075;-90
2022/03/23 08:22:51;;;;;;;38.00;24.90;;;11.00;99.90;;;;;;4881217;29;20538;-90
2022/03/23 08:25:17;;;;;;;42.58;25.08;;;11.30;99.90;;;;;;4897404;29;20088;-90
2022/03/23 08:27:42;;;;;;;38.08;24.15;;;11.30;99.90;;;;;;4865718;29;20415;-90
2022/03/23 08:30:09;;;;;;;35.42;22.65;;;11.50;99.90;;;;;;4880933;29;20053;-90
2022/03/23 08:32:34;;;;;;;32.53;21.60;;;11.70;99.90;;;;;;4881244;29;20550;-90
2022/03/23 08:35:00;;;;;;;26.40;19.50;;;11.90;99.90;;;;;;4866103;29;20184;-90
2022/03/23 08:37:26;;;;;;;27.50;18.17;;;12.10;99.90;;;;;;4884711;29;20099;-91
2022/03/23 08:39:52;;;;;;;30.73;18.95;;;12.40;99.60;;;;;;4869752;29;20108;-90
2022/03/23 08:42:18;;;;;;;28.00;18.98;;;12.60;97.70;;;;;;4869652;29;20388;-91
2022/03/23 08:44:45;;;;;;;27.33;18.08;;;12.70;93.10;;;;;;4885188;29;20143;-90
2022/03/23 08:47:12;;;;;;;24.58;18.45;;;12.90;91.50;;;;;;4868795;29;20066;-90
2022/03/23 08:49:38;;;;;;;26.95;18.27;;;13.30;90.60;;;;;;4884903;29;20518;-90
2022/03/23 08:52:04;;;;;;;27.45;18.42;;;13.30;85.20;;;;;;4884844;29;20049;-91
2022/03/23 08:54:31;;;;;;;23.45;17.88;;;13.50;80.30;;;;;;4868678;29;20495;-91
2022/03/23 08:56:56;;;;;;;25.80;17.75;;;13.70;78.10;;;;;;4884560;29;20066;-91
2022/03/23 08:59:22;;;;;;;27.35;18.77;;;13.80;74.20;;;;;;4884688;29;20131;-91
2022/03/23 09:01:48;;;;;;;25.98;18.23;;;14.00;71.70;;;;;;4884630;29;20055;-91
2022/03/23 09:04:15;;;;;;;24.40;17.55;;;14.60;70.50;;;;;;4869056;29;20483;-91
2022/03/23 09:06:40;;;;;;;23.92;16.98;;;15.50;65.50;;;;;;4901163;29;20092;-91
2022/03/23 09:09:06;;;;;;;24.60;17.48;;;16.70;61.30;;;;;;4884471;29;20040;-91
2022/03/23 09:11:32;;;;;;;24.77;16.52;;;18.10;57.30;;;;;;4884020;29;20131;-91
2022/03/23 09:13:58;;;;;;;21.95;15.52;;;19.30;53.60;;;;;;4884504;29;20063;-91
2022/03/23 09:16:25;;;;;;;24.70;16.13;;;20.40;50.90;;;;;;4884361;29;20123;-92
2022/03/23 09:18:51;;;;;;;24.17;16.15;;;21.20;48.70;;;;;;4884418;29;20060;-92
2022/03/23 09:21:17;;;;;;;21.95;16.10;;;21.90;46.70;;;;;;4885162;29;20052;-92
2022/03/23 09:23:43;;;;;;;24.63;17.15;;;22.60;45.00;;;;;;4884182;29;20049;-92
2022/03/23 09:26:11;;;;;;;20.38;15.25;;;23.20;43.20;;;;;;4884291;29;20047;-92
2022/03/23 09:28:38;;;;;;;16.83;14.45;;;23.60;42.40;;;;;;4869293;29;20060;-92
2022/03/23 09:31:04;;;;;;;18.98;14.18;;;23.90;40.10;;;;;;4868872;29;20076;-92
2022/03/23 09:33:29;;;;;;;16.85;13.45;;;24.20;38.80;;;;;;4884215;29;20514;-92
2022/03/23 09:35:55;;;;;;;16.15;13.85;;;24.60;38.00;;;;;;4884731;29;20052;-91
2022/03/23 09:38:21;;;;;;;18.13;14.88;;;25.00;37.30;;;;;;4884556;29;20090;-93
2022/03/23 09:40:50;;;;;;;15.60;13.43;;;25.40;36.90;;;;;;4884013;29;20084;-92
2022/03/23 09:43:19;;;;;;;16.25;14.52;;;25.70;35.10;;;;;;4884312;29;20064;-91
2022/03/23 09:45:47;;;;;;;17.88;14.25;;;25.90;35.20;;;;;;4883795;29;20108;-93
2022/03/23 09:48:25;;;;;;;17.10;14.32;;;26.00;34.80;;;;;;4884031;29;20104;-92
2022/03/23 09:50:53;;;;;;;18.33;14.40;;;26.20;33.60;;;;;;4900520;29;20088;-92
2022/03/23 09:53:21;;;;;;;18.50;13.55;;;26.30;34.10;;;;;;4884437;29;20048;-93
2022/03/23 09:55:48;;;;;;;15.10;13.52;;;26.50;33.10;;;;;;4884727;29;20519;-92
2022/03/23 09:58:14;;;;;;;18.65;13.32;;;26.50;32.90;;;;;;4884716;29;20048;-93
2022/03/23 10:00:42;;;;;;;14.95;13.38;;;26.40;32.00;;;;;;4883527;29;20071;-92
2022/03/23 10:03:13;;;;;;;16.63;14.63;;;26.40;32.40;;;;;;4883409;29;20052;-93
2022/03/23 10:06:01;;;;;;;15.15;13.55;;;26.50;32.30;;;;;;4883775;29;20045;-93
2022/03/23 10:08:57;;;;;;;19.35;13.80;;;26.60;31.50;;;;;;4868317;29;20057;-93
2022/03/23 10:11:57;;;;;;;19.77;14.80;;;26.70;31.60;;;;;;4868075;29;20060;-93
2022/03/23 10:14:44;;;;;;;17.23;14.82;;;26.90;31.50;;;;;;4869047;29;20052;-94
2022/03/23 10:17:42;;;;;;;19.98;14.90;;;27.10;30.60;;;;;;4883810;29;20048;-94
2022/03/23 10:20:11;;;;;;;17.38;14.35;;;27.10;30.80;;;;;;4883804;29;20104;-93
2022/03/23 10:22:48;;;;;;;17.92;15.38;;;27.50;31.10;;;;;;4868180;29;20087;-94
2022/03/23 10:25:15;;;;;;;18.95;15.27;;;27.90;30.20;;;;;;4884183;29;20053;-93
2022/03/23 10:27:43;;;;;;;16.55;14.80;;;28.00;30.00;;;;;;4868915;29;20056;-93
2022/03/23 10:30:09;;;;;;;18.65;14.35;;;27.90;29.80;;;;;;4868778;29;20127;-93
2022/03/23 10:32:39;;;;;;;16.27;13.65;;;27.80;30.40;;;;;;4883224;29;20135;-93
2022/03/23 10:35:10;;;;;;;17.05;14.23;;;27.80;30.00;;;;;;4884144;29;20049;-93
2022/03/23 10:37:36;;;;;;;15.70;14.02;;;28.00;30.10;;;;;;4867864;29;20155;-93
2022/03/23 10:40:08;;;;;;;15.88;13.80;;;28.30;30.00;;;;;;4884176;29;20135;-93
2022/03/23 10:42:37;;;;;;;18.38;14.98;;;28.60;30.10;;;;;;4868108;29;20044;-90
2022/03/23 10:45:16;;;;;;;15.88;13.90;;;29.10;30.20;;;;;;4883688;29;20051;-91
2022/03/23 10:47:42;;;;;;;15.80;13.68;;;29.30;29.40;;;;;;4867663;29;20055;-91
2022/03/23 10:50:20;;;;;;;15.98;14.00;;;29.30;29.10;;;;;;4883228;29;20155;-91
2022/03/23 10:52:53;;;;;;;15.45;13.85;;;29.20;29.20;;;;;;4883528;29;20469;-93
2022/03/23 10:55:20;;;;;;;19.02;13.75;;;29.30;29.70;;;;;;4883498;29;20100;-91
2022/03/23 10:58:02;;;;;;;17.60;14.38;;;29.70;28.90;;;;;;4866976;29;20068;-92
2022/03/23 11:00:39;;;;;;;22.65;14.57;;;29.70;28.20;;;;;;4883132;29;20060;-91
2022/03/23 11:03:07;;;;;;;15.57;13.85;;;29.60;28.50;;;;;;4867662;29;20049;-91
2022/03/23 11:05:41;;;;;;;17.85;13.32;;;29.80;28.70;;;;;;4883886;29;20049;-92
2022/03/23 11:08:14;;;;;;;16.40;12.95;;;29.90;28.40;;;;;;4883341;29;20119;-91
2022/03/23 11:16:24;;;;;;;19.27;13.52;;;30.40;28.80;;;;;;4882837;29;20080;-92
2022/03/23 11:19:18;;;;;;;19.05;14.80;;;30.50;28.70;;;;;;4882448;29;20075;-92
2022/03/23 11:22:01;;;;;;;17.48;12.75;;;30.60;28.20;;;;;;4826506;29;20057;-92
2022/03/23 11:24:28;;;;;;;19.70;13.55;;;30.60;27.90;;;;;;4841649;29;20066;-92
2022/03/23 11:26:57;;;;;;;15.60;12.70;;;30.60;28.00;;;;;;4825934;29;20585;-92
2022/03/23 11:29:23;;;;;;;17.60;12.63;;;30.80;27.90;;;;;;4841685;29;20509;-92
2022/03/23 11:31:52;;;;;;;16.48;12.43;;;30.70;27.30;;;;;;4826941;29;20049;-92
2022/03/23 11:34:22;;;;;;;18.65;11.95;;;30.70;27.30;;;;;;4826252;29;20066;-92
2022/03/23 11:36:50;;;;;;;17.83;10.57;;;30.70;27.30;;;;;;4841603;29;20068;-93
2022/03/23 11:39:16;;;;;;;16.60;10.10;;;30.80;27.20;;;;;;4842030;29;20072;-92
2022/03/23 11:41:43;;;;;;;13.45;11.07;;;30.90;27.00;;;;;;4843123;29;20061;-93
2022/03/23 11:44:16;;;;;;;24.35;11.23;;;31.00;26.90;;;;;;4826788;29;20129;-92
2022/03/23 11:46:42;;;;;;;15.40;10.48;;;31.10;26.80;;;;;;4811586;29;20058;-91
2022/03/23 11:49:11;;;;;;;16.05;10.32;;;31.20;26.90;;;;;;4827590;29;20065;-93
2022/03/23 11:51:51;;;;;;;16.83;11.30;;;31.20;26.40;;;;;;4827962;29;20062;-92
2022/03/23 11:55:36;;;;;;;;;;;31.20;26.50;;;;;;4826920;29;20118;-92
2022/03/23 11:57:14;;;;;;;17.45;11.60;;;31.40;27.10;;;;;;4826693;29;19932;-93
2022/03/23 11:59:42;;;;;;;17.00;11.77;;;31.50;27.10;;;;;;4875653;29;20068;-93
2022/03/23 12:02:09;;;;;;;17.45;11.55;;;31.60;26.50;;;;;;4884527;29;20041;-92
2022/03/23 12:04:35;;;;;;;20.80;11.30;;;31.50;26.10;;;;;;4868165;29;20518;-92
2022/03/23 12:07:04;;;;;;;18.35;11.73;;;31.60;26.40;;;;;;4886268;29;20052;-92
2022/03/23 12:09:41;;;;;;;26.70;12.03;;;31.70;26.40;;;;;;4885772;29;20084;-92
2022/03/23 12:12:29;;;;;;;19.65;12.10;;;31.70;25.90;;;;;;4882811;29;20056;-93
2022/03/23 12:15:23;;;;;;;20.10;11.77;;;31.60;26.10;;;;;;4894203;29;20048;-92
2022/03/23 12:17:58;;;;;;;15.70;10.13;;;31.50;26.50;;;;;;4879977;29;20056;-91
2022/03/23 12:20:29;;;;;;;17.48;11.00;;;31.40;26.90;;;;;;4889733;29;20135;-93
2022/03/23 12:23:22;;;;;;;17.67;11.75;;;31.50;27.00;;;;;;4883613;29;20061;-93
2022/03/23 12:26:01;;;;;;;17.70;11.90;;;31.80;26.30;;;;;;4826478;29;20054;-93
2022/03/23 12:28:55;;;;;;;19.67;12.35;;;32.00;25.90;;;;;;4826162;29;20070;-93
2022/03/23 12:31:21;;;;;;;19.10;12.25;;;31.90;25.60;;;;;;4810827;29;20076;-92
2022/03/23 12:33:58;;;;;;;20.73;12.55;;;31.80;25.80;;;;;;4825542;29;20058;-93
2022/03/23 12:36:56;;;;;;;20.63;11.65;;;32.00;26.30;;;;;;4825730;29;20085;-92
2022/03/23 12:39:27;;;;;;;16.05;10.63;;;32.30;26.00;;;;;;4825577;29;20061;-93
2022/03/23 12:41:53;;;;;;;19.30;10.50;;;32.60;26.30;;;;;;4841159;29;20049;-93
2022/03/23 12:44:31;;;;;;;25.90;8.48;;;32.80;26.20;;;;;;4841066;29;20122;-92
2022/03/23 12:47:03;;;;;;;18.00;9.00;;;32.80;25.90;;;;;;4840595;29;20061;-92
2022/03/23 12:58:08;;;;;;;25.42;8.35;;;32.70;25.60;;;;;;4825630;29;20141;-92
2022/03/23 13:00:47;;;;;;;18.42;7.00;;;32.60;25.70;;;;;;4825736;29;20050;-93
2022/03/23 13:03:19;;;;;;;16.60;8.20;;;32.60;25.70;;;;;;4845602;29;20384;-92
2022/03/23 13:05:59;;;;;;;21.15;7.07;;;32.50;25.80;;;;;;4865726;29;20121;-92
2022/03/23 13:08:30;;;;;;;18.35;6.63;;;32.40;26.30;;;;;;4865311;29;20065;-92